Time;durP1;ratioP1;P1;durP2;ratioP2;P2;SDS_P1;SDS_P2;PMS_P1;PMS_P2;Temp;Humidity;BMP_temperature;BMP_pressure;BME280_temperature;BME280_humidity;BME280_pressure;Samples;Min_cycle;Max_cycle;Signal;HPM_P1;HPM_P2
2022/12/22 03:28:06;;;;;;;6.38;5.43;;;8.00;99.90;;;;;;12583342;28;20541;-86
2022/12/22 03:34:08;;;;;;;9.45;6.60;;;8.00;99.90;;;;;;12588493;28;20536;-86
2022/12/22 03:40:10;;;;;;;10.05;7.60;;;8.10;99.90;;;;;;12575345;28;20551;-85
2022/12/22 03:46:29;;;;;;;13.32;9.63;;;7.90;99.90;;;;;;12564979;28;20389;-86
2022/12/22 03:52:31;;;;;;;17.55;9.13;;;7.80;99.90;;;;;;12591365;28;20059;-85
2022/12/22 03:58:32;;;;;;;12.55;9.13;;;7.80;99.90;;;;;;12566911;28;20044;-85
2022/12/22 04:04:34;;;;;;;14.20;9.13;;;7.70;99.90;;;;;;12558434;28;20051;-85
2022/12/22 04:16:57;;;;;;;11.77;8.05;;;7.80;99.90;;;;;;12584789;28;20048;-85
2022/12/22 04:22:59;;;;;;;9.13;6.80;;;7.80;99.90;;;;;;12584566;28;20033;-85
2022/12/22 04:29:00;;;;;;;11.07;7.20;;;7.80;99.90;;;;;;12581405;28;20124;-85
2022/12/22 04:35:03;;;;;;;12.48;7.32;;;7.70;99.90;;;;;;12584688;28;20131;-85
2022/12/22 04:41:06;;;;;;;10.55;7.43;;;7.70;99.90;;;;;;12553657;28;20040;-86
2022/12/22 04:47:07;;;;;;;10.85;5.97;;;7.60;99.90;;;;;;12561189;28;20051;-86
2022/12/22 04:53:09;;;;;;;11.00;6.07;;;7.70;99.90;;;;;;12567340;28;20404;-85
2022/12/22 04:59:11;;;;;;;9.30;6.07;;;7.70;99.90;;;;;;12564872;28;20045;-85
2022/12/22 05:05:13;;;;;;;10.57;6.85;;;7.70;99.90;;;;;;12566332;28;20044;-86
2022/12/22 05:11:14;;;;;;;9.70;6.78;;;7.70;99.90;;;;;;12591798;28;20044;-86
2022/12/22 05:17:17;;;;;;;14.45;7.72;;;7.70;99.90;;;;;;12586331;28;20044;-86
2022/12/22 05:23:19;;;;;;;15.25;7.50;;;7.60;99.90;;;;;;12580768;28;20043;-86
2022/12/22 05:29:20;;;;;;;10.85;7.70;;;7.60;99.90;;;;;;12582205;28;20079;-86
2022/12/22 05:35:22;;;;;;;16.90;8.20;;;7.60;99.90;;;;;;12560200;28;20052;-86
2022/12/22 05:41:24;;;;;;;15.38;8.70;;;7.60;99.90;;;;;;12559969;28;20047;-86
2022/12/22 05:47:26;;;;;;;13.80;8.57;;;7.70;99.90;;;;;;12566870;28;20052;-86
2022/12/22 05:53:27;;;;;;;17.30;8.07;;;7.70;99.90;;;;;;12569724;28;20048;-85
2022/12/22 05:59:29;;;;;;;15.35;9.05;;;7.80;99.90;;;;;;12580092;28;20063;-86
2022/12/22 06:05:31;;;;;;;13.35;9.05;;;7.80;99.90;;;;;;12581962;28;20052;-85
2022/12/22 06:11:32;;;;;;;13.95;8.25;;;7.70;99.90;;;;;;12578519;28;20469;-86
2022/12/22 06:17:34;;;;;;;15.52;8.38;;;7.80;99.90;;;;;;12566159;28;20052;-86
2022/12/22 06:23:44;;;;;;;18.77;8.77;;;7.80;99.90;;;;;;12574643;28;20201;-86
2022/12/22 06:29:46;;;;;;;15.70;8.82;;;7.70;99.90;;;;;;12573463;28;20060;-86
2022/12/22 06:35:48;;;;;;;14.10;8.23;;;7.70;99.90;;;;;;12588504;28;20045;-86
2022/12/22 06:48:19;;;;;;;11.25;7.03;;;7.60;99.90;;;;;;12592367;28;20063;-86
2022/12/22 06:54:21;;;;;;;13.75;8.02;;;7.70;99.90;;;;;;12589035;28;20408;-86
2022/12/22 07:00:27;;;;;;;13.30;7.45;;;7.70;99.90;;;;;;12582225;28;20097;-86
2022/12/22 07:06:29;;;;;;;14.23;8.40;;;7.70;99.90;;;;;;12576136;28;20571;-86
2022/12/22 07:12:31;;;;;;;396.27;18.65;;;7.60;99.90;;;;;;12612938;28;20044;-86
2022/12/22 07:18:38;;;;;;;298.80;14.05;;;7.50;99.90;;;;;;12576979;28;20048;-86
2022/12/22 07:24:40;;;;;;;90.25;9.23;;;7.40;99.90;;;;;;12567266;28;20049;-86
2022/12/22 07:30:41;;;;;;;111.07;10.43;;;7.30;99.90;;;;;;12581587;28;20047;-86
2022/12/22 07:36:43;;;;;;;234.40;10.95;;;7.40;99.90;;;;;;12579284;28;20503;-87
2022/12/22 07:42:45;;;;;;;240.65;12.50;;;7.30;99.90;;;;;;12567679;28;20036;-87
2022/12/22 07:55:08;;;;;;;104.78;10.65;;;7.20;99.90;;;;;;12585044;28;20051;-87
2022/12/22 08:01:10;;;;;;;262.33;13.27;;;7.10;99.90;;;;;;12589909;28;20052;-87
2022/12/22 08:07:11;;;;;;;83.88;8.70;;;7.10;99.90;;;;;;12573858;28;20053;-87
2022/12/22 08:13:13;;;;;;;276.67;15.40;;;7.10;99.90;;;;;;12583506;28;20044;-87
2022/12/22 08:19:15;;;;;;;75.10;8.35;;;7.10;99.90;;;;;;12571993;28;20099;-87
2022/12/22 08:25:17;;;;;;;79.65;8.75;;;7.10;99.90;;;;;;12586948;28;20358;-87
2022/12/22 08:31:20;;;;;;;99.07;9.73;;;7.10;99.90;;;;;;12569223;28;20060;-87
2022/12/22 08:37:26;;;;;;;92.85;10.07;;;7.10;99.90;;;;;;12590958;28;20083;-86
2022/12/22 08:43:30;;;;;;;42.28;8.25;;;7.00;99.90;;;;;;12582105;28;20115;-87
2022/12/22 08:49:32;;;;;;;59.85;8.85;;;7.00;99.90;;;;;;12562476;28;20064;-86
2022/12/22 08:55:33;;;;;;;126.60;15.82;;;7.10;99.90;;;;;;12593748;28;20048;-86
2022/12/22 09:01:37;;;;;;;211.93;17.17;;;7.00;99.90;;;;;;12571234;28;20047;-86
2022/12/22 09:07:40;;;;;;;137.77;14.23;;;7.00;99.90;;;;;;12571995;28;20045;-87
2022/12/22 09:13:41;;;;;;;26.85;11.63;;;7.00;99.90;;;;;;12584802;28;20047;-86
2022/12/22 09:19:43;;;;;;;26.17;11.75;;;7.10;99.90;;;;;;12582330;28;20037;-86
2022/12/22 09:25:45;;;;;;;50.05;12.45;;;7.20;99.90;;;;;;12567316;28;20101;-87
2022/12/22 09:31:47;;;;;;;42.45;11.18;;;7.30;99.90;;;;;;12584456;28;20043;-87
2022/12/22 09:37:48;;;;;;;44.35;11.55;;;7.40;99.90;;;;;;12562175;28;20044;-86
2022/12/22 09:43:50;;;;;;;43.88;10.98;;;7.50;99.90;;;;;;12576351;28;20036;-87
2022/12/22 09:49:54;;;;;;;29.23;9.13;;;7.60;99.90;;;;;;12576573;28;20056;-87
2022/12/22 09:55:56;;;;;;;24.17;9.43;;;7.60;99.90;;;;;;12567265;28;20059;-87
2022/12/22 10:01:58;;;;;;;49.30;9.95;;;7.80;99.90;;;;;;12586967;28;20481;-87
2022/12/22 10:08:01;;;;;;;55.30;9.68;;;7.80;99.90;;;;;;12566811;28;20439;-86
2022/12/22 10:14:03;;;;;;;66.80;10.77;;;8.00;99.90;;;;;;12588968;28;20045;-87
2022/12/22 10:20:24;;;;;;;59.40;12.07;;;8.00;99.90;;;;;;12574833;28;20492;-87
2022/12/22 10:26:31;;;;;;;87.53;13.73;;;8.10;99.90;;;;;;12576446;28;20416;-86
2022/12/22 10:32:33;;;;;;;43.88;12.40;;;8.10;99.90;;;;;;12573805;28;20427;-86
2022/12/22 10:38:51;;;;;;;31.23;11.57;;;8.20;99.90;;;;;;12574291;28;20044;-86
2022/12/22 10:44:53;;;;;;;23.17;10.88;;;8.20;99.90;;;;;;12576725;28;20174;-86
2022/12/22 10:50:56;;;;;;;24.75;10.68;;;8.20;99.90;;;;;;12573460;28;20101;-87
2022/12/22 10:57:21;;;;;;;27.15;11.88;;;8.10;99.90;;;;;;12580175;28;20048;-86
2022/12/22 11:03:29;;;;;;;25.02;10.88;;;8.20;99.90;;;;;;12571583;28;20045;-86
2022/12/22 11:09:31;;;;;;;22.85;11.20;;;8.30;99.90;;;;;;12571906;28;20057;-87
2022/12/22 11:16:01;;;;;;;25.30;11.82;;;8.30;99.90;;;;;;12571994;28;20044;-86
2022/12/22 11:22:14;;;;;;;21.63;10.55;;;8.40;99.90;;;;;;12578772;28;20052;-87
2022/12/22 11:28:56;;;;;;;23.02;10.40;;;8.40;99.90;;;;;;12575863;28;20049;-86
2022/12/22 11:35:21;;;;;;;21.17;10.55;;;8.50;99.90;;;;;;12522731;28;20033;-86
2022/12/22 11:41:29;;;;;;;;;;;8.60;99.90;;;;;;12580735;28;20155;-87
2022/12/22 11:47:58;;;;;;;19.73;11.07;;;8.70;99.90;;;;;;12559436;28;19920;-86
2022/12/22 11:54:41;;;;;;;21.30;11.25;;;8.70;99.90;;;;;;12584547;28;20041;-86
2022/12/22 12:00:57;;;;;;;20.95;11.57;;;8.80;99.90;;;;;;12526768;28;20092;-86
2022/12/22 12:07:33;;;;;;;18.83;11.10;;;8.90;99.90;;;;;;12562603;28;20101;-87
2022/12/22 12:13:53;;;;;;;18.20;10.02;;;9.00;99.90;;;;;;12570029;28;20044;-86
2022/12/22 12:20:14;;;;;;;18.30;10.18;;;9.10;99.90;;;;;;12565834;28;20056;-86
2022/12/22 12:26:27;;;;;;;16.83;10.55;;;9.00;99.90;;;;;;12583045;28;20082;-86
2022/12/22 12:32:48;;;;;;;17.48;9.88;;;8.90;99.90;;;;;;12581003;28;20106;-86
2022/12/22 12:39:00;;;;;;;13.43;8.05;;;9.00;99.90;;;;;;12583896;28;20059;-87
2022/12/22 12:45:37;;;;;;;19.45;8.93;;;9.00;99.90;;;;;;12565116;28;20492;-86
2022/12/22 12:51:48;;;;;;;17.02;9.38;;;9.10;99.90;;;;;;12562428;28;20125;-86
2022/12/22 12:57:51;;;;;;;14.63;6.80;;;9.00;99.90;;;;;;12569175;28;20101;-87
2022/12/22 13:03:53;;;;;;;10.73;6.50;;;8.90;99.90;;;;;;12585840;28;20044;-85
2022/12/22 13:10:23;;;;;;;12.90;7.10;;;8.80;99.90;;;;;;12567671;28;20105;-84
2022/12/22 13:16:27;;;;;;;11.23;5.63;;;8.90;99.90;;;;;;12584110;28;20048;-84
2022/12/22 13:22:32;;;;;;;10.60;6.60;;;8.90;99.90;;;;;;12579938;28;20119;-84
2022/12/22 13:28:35;;;;;;;13.95;5.80;;;8.80;99.90;;;;;;12572764;28;20050;-84
2022/12/22 13:34:45;;;;;;;11.73;6.07;;;8.70;99.90;;;;;;12582015;28;20109;-84
2022/12/22 13:41:20;;;;;;;13.15;6.65;;;8.50;99.90;;;;;;12557512;28;20448;-84
2022/12/22 13:47:28;;;;;;;13.15;6.82;;;8.50;99.90;;;;;;12559047;28;20049;-84
2022/12/22 13:53:47;;;;;;;12.63;6.50;;;8.40;99.90;;;;;;12578501;28;20036;-84
2022/12/22 14:00:24;;;;;;;12.52;7.38;;;8.30;99.90;;;;;;12578870;28;20071;-84
2022/12/22 14:06:29;;;;;;;14.15;7.53;;;8.40;99.90;;;;;;12566228;28;20051;-84
2022/12/22 14:12:39;;;;;;;13.93;6.78;;;8.30;99.90;;;;;;12581362;28;20045;-84
2022/12/22 14:18:41;;;;;;;13.35;6.97;;;8.30;99.90;;;;;;12570040;28;20055;-84
2022/12/22 14:25:15;;;;;;;11.65;6.57;;;8.30;99.90;;;;;;12550895;28;20054;-84
2022/12/22 14:31:17;;;;;;;13.43;7.22;;;8.10;99.90;;;;;;12563169;28;20051;-84
2022/12/22 14:37:23;;;;;;;12.02;7.10;;;8.10;99.90;;;;;;12580423;28;20059;-84
2022/12/22 14:43:33;;;;;;;16.53;7.67;;;8.00;99.90;;;;;;12564978;28;20389;-84
2022/12/22 14:49:54;;;;;;;13.10;7.43;;;7.80;99.90;;;;;;12571323;28;20408;-84
2022/12/22 14:55:55;;;;;;;14.45;7.30;;;7.50;99.90;;;;;;12594973;28;20480;-84
2022/12/22 15:02:20;;;;;;;18.98;7.47;;;7.50;99.90;;;;;;12581529;28;20044;-84
2022/12/22 15:08:42;;;;;;;16.33;8.07;;;7.30;99.90;;;;;;12587391;28;20057;-84
2022/12/22 15:14:47;;;;;;;16.35;7.78;;;7.20;99.90;;;;;;12622022;28;20064;-86
2022/12/22 15:20:49;;;;;;;16.17;8.73;;;6.90;99.90;;;;;;12644978;28;20031;-84
2022/12/22 15:26:51;;;;;;;17.38;10.48;;;6.80;99.90;;;;;;12635306;28;20091;-84
2022/12/22 15:32:55;;;;;;;17.25;10.45;;;6.80;99.90;;;;;;12640183;28;20033;-84
2022/12/22 15:38:57;;;;;;;18.20;10.77;;;6.80;99.90;;;;;;12597542;28;20555;-84
2022/12/22 15:44:59;;;;;;;19.90;10.88;;;6.90;99.90;;;;;;12577399;28;20049;-83
2022/12/22 15:51:06;;;;;;;19.40;11.10;;;6.90;99.90;;;;;;12583211;28;20141;-83
2022/12/22 15:57:11;;;;;;;18.90;10.95;;;6.90;99.90;;;;;;12571818;28;20106;-83
2022/12/22 16:03:13;;;;;;;18.42;10.80;;;6.90;99.90;;;;;;12585847;28;20048;-83
2022/12/22 16:09:22;;;;;;;17.63;9.85;;;7.00;99.90;;;;;;12588852;28;20481;-83
2022/12/22 16:15:34;;;;;;;21.77;10.48;;;7.00;99.90;;;;;;12573799;28;20186;-83
2022/12/22 16:21:36;;;;;;;18.10;10.38;;;6.90;99.90;;;;;;12578929;28;20135;-83
2022/12/22 16:27:38;;;;;;;21.05;10.70;;;6.80;99.90;;;;;;12576868;28;20480;-83
2022/12/22 16:33:39;;;;;;;21.23;9.88;;;6.90;99.90;;;;;;12589346;28;20041;-83
2022/12/22 16:39:41;;;;;;;19.33;10.05;;;6.80;99.90;;;;;;12597077;28;20044;-83
2022/12/22 16:45:44;;;;;;;20.58;10.48;;;6.80;99.90;;;;;;12555026;28;20037;-83
2022/12/22 16:51:50;;;;;;;20.67;10.13;;;6.80;99.90;;;;;;12571635;28;20900;-83
2022/12/22 16:57:52;;;;;;;26.70;11.77;;;6.70;99.90;;;;;;12590993;28;20046;-83
2022/12/22 17:03:55;;;;;;;23.73;12.90;;;6.70;99.90;;;;;;12574339;28;20104;-82
2022/12/22 17:10:03;;;;;;;23.17;13.45;;;6.60;99.90;;;;;;12581272;28;20059;-83
2022/12/22 17:16:05;;;;;;;24.85;13.70;;;6.70;99.90;;;;;;12570962;28;20064;-83
2022/12/22 17:22:31;;;;;;;28.58;14.80;;;6.80;99.90;;;;;;12574085;28;20059;-83
2022/12/22 17:28:34;;;;;;;31.35;15.50;;;6.80;99.90;;;;;;12576631;28;20072;-83
2022/12/22 17:34:36;;;;;;;27.35;15.15;;;6.90;99.90;;;;;;12556794;28;20044;-83
2022/12/22 17:40:38;;;;;;;26.80;15.75;;;6.80;99.90;;;;;;12570193;28;20044;-83
2022/12/22 17:46:40;;;;;;;32.97;16.42;;;6.90;99.90;;;;;;12578310;28;20079;-83
2022/12/22 17:52:43;;;;;;;34.08;16.88;;;6.80;99.90;;;;;;12585556;28;20041;-83
2022/12/22 17:58:45;;;;;;;28.08;16.88;;;6.80;99.90;;;;;;12582802;28;20063;-83
2022/12/22 18:04:48;;;;;;;36.28;18.45;;;6.90;99.90;;;;;;12575001;28;20040;-84
2022/12/22 18:10:50;;;;;;;32.45;18.98;;;6.90;99.90;;;;;;12602830;28;20118;-84
2022/12/22 18:16:52;;;;;;;37.08;18.75;;;7.00;99.90;;;;;;12599185;28;20588;-84
2022/12/22 18:22:59;;;;;;;36.92;18.10;;;6.90;99.90;;;;;;12585834;28;20516;-84
2022/12/22 18:29:03;;;;;;;29.45;18.25;;;6.90;99.90;;;;;;12594307;28;20049;-84
2022/12/22 18:35:05;;;;;;;33.10;19.17;;;6.90;99.90;;;;;;12583755;28;20044;-84
2022/12/22 18:41:08;;;;;;;33.22;18.77;;;6.80;99.90;;;;;;12581160;28;20072;-85
2022/12/22 18:47:10;;;;;;;33.72;18.25;;;6.80;99.90;;;;;;12566846;28;20060;-85
2022/12/22 18:53:32;;;;;;;27.05;17.08;;;6.80;99.90;;;;;;12561586;28;20461;-85
2022/12/22 18:59:34;;;;;;;28.60;17.55;;;6.80;99.90;;;;;;12583206;28;20135;-85
2022/12/22 19:05:36;;;;;;;31.23;16.63;;;6.80;99.90;;;;;;12590100;28;20048;-85
2022/12/22 19:11:38;;;;;;;32.28;17.58;;;6.80;99.90;;;;;;12594479;28;20085;-85
2022/12/22 19:17:40;;;;;;;27.27;16.10;;;6.80;99.90;;;;;;12588587;28;20044;-85
2022/12/22 19:23:42;;;;;;;31.52;16.92;;;6.80;99.90;;;;;;12574261;28;20576;-85
2022/12/22 19:29:45;;;;;;;29.13;15.80;;;6.80;99.90;;;;;;12581324;28;20068;-85
2022/12/22 19:35:46;;;;;;;30.63;16.58;;;6.80;99.90;;;;;;12579687;28;21239;-85
2022/12/22 19:41:51;;;;;;;28.13;16.30;;;6.90;99.90;;;;;;12579830;28;20075;-85
2022/12/22 19:47:54;;;;;;;;;;;6.80;99.90;;;;;;12565355;28;20515;-85
2022/12/22 19:53:56;;;;;;;32.60;16.55;;;6.80;99.90;;;;;;12583451;28;19921;-85
2022/12/22 19:59:57;;;;;;;30.17;17.00;;;6.80;99.90;;;;;;12567916;28;20515;-85
2022/12/22 20:05:59;;;;;;;32.42;17.33;;;6.90;99.90;;;;;;12589536;28;20047;-85
2022/12/22 20:12:01;;;;;;;29.98;16.02;;;6.80;99.90;;;;;;12567768;28;20048;-85
2022/12/22 20:18:13;;;;;;;34.75;17.08;;;6.80;99.90;;;;;;12585068;28;20044;-85
2022/12/22 20:24:21;;;;;;;30.70;17.30;;;6.80;99.90;;;;;;12573987;28;20055;-85
2022/12/22 20:30:28;;;;;;;32.35;17.02;;;6.80;99.90;;;;;;12573491;28;20052;-86
2022/12/22 20:36:30;;;;;;;29.15;15.95;;;6.80;99.90;;;;;;12585390;28;20072;-85
2022/12/22 20:42:32;;;;;;;26.15;14.95;;;6.80;99.90;;;;;;12572323;28;20055;-86
2022/12/22 20:48:38;;;;;;;23.58;13.93;;;6.80;99.90;;;;;;12581034;28;20048;-86
2022/12/22 20:54:40;;;;;;;24.88;12.73;;;7.00;99.90;;;;;;12578432;28;20505;-86
2022/12/22 21:00:41;;;;;;;27.38;13.93;;;7.10;99.90;;;;;;12566732;28;20096;-86
2022/12/22 21:06:54;;;;;;;25.10;13.77;;;7.20;99.90;;;;;;12595511;28;20054;-86
2022/12/22 21:12:56;;;;;;;24.38;12.10;;;7.20;99.90;;;;;;12583430;28;20048;-86
2022/12/22 21:18:58;;;;;;;18.83;10.60;;;7.30;99.90;;;;;;12576278;28;20052;-86
2022/12/22 21:24:59;;;;;;;24.73;11.02;;;7.40;99.90;;;;;;12580803;28;20135;-86
2022/12/22 21:31:02;;;;;;;19.52;10.32;;;7.40;99.90;;;;;;12564607;28;20052;-85
2022/12/22 21:37:08;;;;;;;16.30;9.13;;;7.40;99.90;;;;;;12566709;28;20100;-85
2022/12/22 21:43:10;;;;;;;19.80;10.73;;;7.50;99.90;;;;;;12580945;28;20066;-85
2022/12/22 21:49:18;;;;;;;20.45;10.13;;;7.50;99.90;;;;;;12590565;28;20098;-85
2022/12/22 21:55:27;;;;;;;22.23;10.88;;;7.60;99.90;;;;;;12578658;28;20041;-85
2022/12/22 22:01:29;;;;;;;20.38;10.38;;;7.60;99.90;;;;;;12581632;28;20048;-85
2022/12/22 22:07:31;;;;;;;19.40;9.73;;;7.70;99.90;;;;;;12606431;28;20067;-85
2022/12/22 22:13:33;;;;;;;19.17;9.88;;;7.60;99.90;;;;;;12593485;28;20463;-85
2022/12/22 22:19:34;;;;;;;14.80;8.32;;;7.70;99.90;;;;;;12581735;28;20078;-85
2022/12/22 22:25:36;;;;;;;15.20;8.30;;;7.80;99.90;;;;;;12587716;28;20068;-86
2022/12/22 22:31:39;;;;;;;15.43;7.80;;;7.80;99.90;;;;;;12581994;28;20044;-85
2022/12/22 22:37:41;;;;;;;16.02;8.63;;;7.80;99.90;;;;;;12586512;28;20083;-85
2022/12/22 22:43:43;;;;;;;13.90;8.15;;;7.90;99.90;;;;;;12577492;28;20412;-85
2022/12/22 22:49:44;;;;;;;16.45;8.25;;;7.90;99.90;;;;;;12574928;28;20101;-86
2022/12/22 22:55:46;;;;;;;14.40;8.95;;;7.90;99.90;;;;;;12584298;28;20093;-85
2022/12/22 23:01:48;;;;;;;13.90;8.35;;;8.00;99.90;;;;;;12581281;28;20048;-85
2022/12/22 23:07:50;;;;;;;13.65;8.13;;;8.20;99.90;;;;;;12589755;28;20055;-86
2022/12/22 23:13:53;;;;;;;11.75;7.10;;;8.30;99.90;;;;;;12596523;28;20044;-86
2022/12/22 23:19:55;;;;;;;11.23;7.03;;;8.40;99.90;;;;;;12581319;28;20044;-86
2022/12/22 23:25:57;;;;;;;10.45;6.75;;;8.40;99.90;;;;;;12581215;28;20045;-86
2022/12/22 23:31:59;;;;;;;14.18;9.35;;;8.40;99.90;;;;;;12569702;28;20511;-86
2022/12/22 23:38:01;;;;;;;12.27;8.57;;;8.50;99.90;;;;;;12557889;28;20170;-86
2022/12/22 23:44:03;;;;;;;13.93;8.48;;;8.40;99.90;;;;;;12587064;28;20049;-86
2022/12/22 23:50:05;;;;;;;12.63;8.52;;;8.50;99.90;;;;;;12573948;28;20056;-86
2022/12/22 23:56:07;;;;;;;12.82;8.98;;;8.50;99.90;;;;;;12589174;28;20160;-86
